createdAt,value
2018-07-21T00:02:23.232Z,72.30
2018-07-21T00:04:51.873Z,72.80
2018-07-21T00:07:20.808Z,73.00
2018-07-21T00:09:49.476Z,73.80
2018-07-21T00:12:18.048Z,74.60
2018-07-21T00:14:46.629Z,75.00
2018-07-21T00:17:15.308Z,75.40
2018-07-21T00:19:43.873Z,75.40
2018-07-21T00:22:12.940Z,75.10
2018-07-21T00:24:42.061Z,75.10
2018-07-21T00:27:20.360Z,75.00
2018-07-21T00:29:49.536Z,75.00
2018-07-21T00:32:18.711Z,75.40
2018-07-21T00:34:48.417Z,75.90
2018-07-21T00:37:18.727Z,76.00
2018-07-21T00:39:47.342Z,75.80
2018-07-21T00:42:16.120Z,75.80
2018-07-21T00:44:44.750Z,75.50
2018-07-21T00:47:13.383Z,75.20
2018-07-21T00:49:42.039Z,75.20
2018-07-21T00:52:10.685Z,75.10
2018-07-21T00:54:39.397Z,74.80
2018-07-21T00:57:08.125Z,75.00
2018-07-21T00:59:36.822Z,75.10
2018-07-21T01:02:05.423Z,75.60
2018-07-21T01:04:34.056Z,75.60
2018-07-21T01:07:02.631Z,76.00
2018-07-21T01:09:31.242Z,75.80
2018-07-21T01:11:59.883Z,76.10
2018-07-21T01:14:28.544Z,76.70
2018-07-21T01:19:25.708Z,77.20
2018-07-21T01:21:54.333Z,77.50
2018-07-21T01:24:22.948Z,77.90
2018-07-21T01:26:51.532Z,77.90
2018-07-21T01:29:20.143Z,78.30
2018-07-21T01:31:48.751Z,78.50
2018-07-21T01:34:17.412Z,79.20
2018-07-21T01:36:46.011Z,80.10
2018-07-21T01:39:14.696Z,80.30
2018-07-21T01:41:43.295Z,80.40
2018-07-21T01:44:11.948Z,80.50
2018-07-21T01:46:40.958Z,80.80
2018-07-21T01:49:09.621Z,80.70
2018-07-21T01:54:06.732Z,81.30
2018-07-21T01:56:35.431Z,81.50
2018-07-21T01:59:04.123Z,81.80
2018-07-21T02:01:32.788Z,81.90
2018-07-21T02:04:01.425Z,82.30
2018-07-21T02:08:58.556Z,83.10
2018-07-21T02:11:27.171Z,84.10
2018-07-21T02:13:55.843Z,83.80
2018-07-21T02:16:24.483Z,84.20
2018-07-21T02:18:53.131Z,83.90
2018-07-21T02:21:21.760Z,83.70
2018-07-21T02:23:50.412Z,83.70
2018-07-21T02:26:19.001Z,83.70
2018-07-21T02:28:47.596Z,83.90
2018-07-21T02:31:16.191Z,84.00
2018-07-21T02:33:44.757Z,84.00
2018-07-21T02:36:13.400Z,83.80
2018-07-21T02:38:42.076Z,83.80
2018-07-21T02:41:10.736Z,83.80
2018-07-21T02:43:39.402Z,83.60
2018-07-21T02:46:08.086Z,83.60
2018-07-21T02:48:36.751Z,84.00
2018-07-21T02:51:05.472Z,83.80
2018-07-21T02:53:34.131Z,84.00
2018-07-21T02:56:02.807Z,84.40
2018-07-21T02:58:31.427Z,85.00
2018-07-21T03:01:00.077Z,85.40
2018-07-21T03:03:28.720Z,86.10
2018-07-21T03:05:57.331Z,85.30
2018-07-21T03:08:25.978Z,85.70
2018-07-21T03:10:54.567Z,84.40
2018-07-21T03:13:23.141Z,84.50
2018-07-21T03:15:51.766Z,84.50
2018-07-21T03:18:20.488Z,84.30
2018-07-21T03:20:49.108Z,84.90
2018-07-21T03:23:17.793Z,85.80
2018-07-21T03:25:46.448Z,85.80
2018-07-21T03:28:15.133Z,87.80
2018-07-21T03:30:43.813Z,86.60
2018-07-21T03:33:12.450Z,86.60
2018-07-21T03:35:41.148Z,88.20
2018-07-21T03:40:38.297Z,87.80
2018-07-21T03:43:07.045Z,88.20
2018-07-21T03:45:35.748Z,88.40
2018-07-21T03:48:04.451Z,87.90
2018-07-21T03:50:33.108Z,87.60
2018-07-21T03:53:01.893Z,87.80
2018-07-21T03:55:30.455Z,87.20
2018-07-21T03:57:59.117Z,87.40
2018-07-21T04:00:27.813Z,87.30
2018-07-21T04:02:56.493Z,88.10
2018-07-21T04:05:25.128Z,88.10
2018-07-21T04:07:53.735Z,88.20
2018-07-21T04:10:22.444Z,88.40
2018-07-21T04:12:51.046Z,89.30
2018-07-21T04:15:19.610Z,89.40
2018-07-21T04:17:48.183Z,89.70
2018-07-21T04:20:16.803Z,89.30
2018-07-21T04:22:45.480Z,88.60
2018-07-21T04:25:14.103Z,88.20
2018-07-21T04:27:42.695Z,87.40
2018-07-21T04:30:11.303Z,87.10
2018-07-21T04:35:08.575Z,86.60
2018-07-21T04:37:37.277Z,86.50
2018-07-21T04:40:07.398Z,86.70
2018-07-21T04:42:36.116Z,86.60
2018-07-21T04:45:04.811Z,86.40
2018-07-21T04:47:33.448Z,86.10
2018-07-21T04:50:02.105Z,85.90
2018-07-21T04:54:59.215Z,85.40
2018-07-21T04:57:28.015Z,85.20
2018-07-21T04:59:56.708Z,84.60
2018-07-21T05:02:25.357Z,84.80
2018-07-21T05:04:53.982Z,84.70
2018-07-21T05:07:22.765Z,84.80
2018-07-21T05:09:51.420Z,85.30
2018-07-21T05:12:20.058Z,85.40
2018-07-21T05:14:48.646Z,85.10
2018-07-21T05:17:17.295Z,85.00
2018-07-21T05:19:45.923Z,84.90
2018-07-21T05:24:42.990Z,83.00
2018-07-21T05:27:11.639Z,84.70
2018-07-21T05:29:40.350Z,86.60
2018-07-21T05:32:09.070Z,89.20
2018-07-21T05:34:37.783Z,90.30
2018-07-21T05:37:06.645Z,89.90
2018-07-21T05:39:35.385Z,89.50
2018-07-21T05:42:04.298Z,88.90
2018-07-21T05:47:01.669Z,88.70
2018-07-21T05:51:58.895Z,87.80
2018-07-21T05:54:27.597Z,88.00
2018-07-21T05:56:56.298Z,87.80
2018-07-21T05:59:24.941Z,87.50
2018-07-21T06:01:53.523Z,87.10
2018-07-21T06:04:22.896Z,86.50
2018-07-21T06:06:51.791Z,86.60
2018-07-21T06:09:20.459Z,86.90
2018-07-21T06:14:17.558Z,85.30
2018-07-21T06:16:46.788Z,85.10
2018-07-21T06:19:16.813Z,84.60
2018-07-21T06:21:45.485Z,84.80
2018-07-21T06:24:14.156Z,84.40
2018-07-21T06:26:42.786Z,83.90
2018-07-21T06:29:11.484Z,81.80
2018-07-21T06:31:40.189Z,80.40
2018-07-21T06:34:08.844Z,79.80
2018-07-21T06:36:37.502Z,80.60
2018-07-21T06:39:09.583Z,79.60
2018-07-21T06:41:38.221Z,78.50
2018-07-21T06:44:07.301Z,78.80
2018-07-21T06:46:36.023Z,80.20
2018-07-21T06:49:04.758Z,80.00
2018-07-21T06:51:33.525Z,77.50
2018-07-21T06:54:02.192Z,77.40
2018-07-21T06:56:30.928Z,75.80
2018-07-21T06:58:59.555Z,75.50
2018-07-21T07:01:28.399Z,75.30
2018-07-21T07:03:57.045Z,75.10
2018-07-21T07:06:25.758Z,75.60
2018-07-21T07:08:54.358Z,73.60
2018-07-21T07:11:22.978Z,74.60
2018-07-21T07:13:51.655Z,74.20
2018-07-21T07:16:20.326Z,72.40
2018-07-21T07:18:48.943Z,69.70
2018-07-21T07:21:17.606Z,68.50
2018-07-21T07:23:46.303Z,66.50
2018-07-21T07:26:14.990Z,66.50
2018-07-21T07:28:43.628Z,66.30
2018-07-21T07:31:12.216Z,65.80
2018-07-21T07:33:40.939Z,65.00
2018-07-21T07:36:09.563Z,64.40
2018-07-21T07:38:38.236Z,65.60
2018-07-21T07:43:35.343Z,65.50
2018-07-21T07:46:06.380Z,65.30
2018-07-21T07:48:35.396Z,65.40
2018-07-21T07:51:04.011Z,64.20
2018-07-21T07:53:34.582Z,66.30
2018-07-21T07:58:31.611Z,69.40
2018-07-21T08:01:00.342Z,68.60
2018-07-21T08:03:29.073Z,67.60
2018-07-21T08:05:57.851Z,67.40
2018-07-21T08:08:26.589Z,66.80
2018-07-21T08:10:55.231Z,66.20
2018-07-21T08:13:24.124Z,66.70
2018-07-21T08:15:52.730Z,64.30
2018-07-21T08:18:21.541Z,63.10
2018-07-21T08:20:50.183Z,61.10
2018-07-21T08:23:18.913Z,59.60
2018-07-21T08:25:47.824Z,60.00
2018-07-21T08:28:17.264Z,60.80
2018-07-21T08:30:45.978Z,61.60
2018-07-21T08:33:15.379Z,61.90
2018-07-21T08:35:44.058Z,62.50
2018-07-21T08:40:42.291Z,61.20
2018-07-21T08:43:11.006Z,60.30
2018-07-21T08:45:39.673Z,60.30
2018-07-21T08:48:08.723Z,60.40
2018-07-21T08:50:37.381Z,60.40
2018-07-21T08:53:06.009Z,57.80
2018-07-21T08:55:34.753Z,58.10
2018-07-21T08:58:04.160Z,57.30
2018-07-21T09:00:33.027Z,57.70
2018-07-21T09:03:01.794Z,57.60
2018-07-21T09:05:30.456Z,58.20
2018-07-21T09:07:59.149Z,57.30
2018-07-21T09:10:27.853Z,54.50
2018-07-21T09:12:57.591Z,54.60
2018-07-21T09:15:26.341Z,54.80
2018-07-21T09:17:55.004Z,55.50
2018-07-21T09:20:24.390Z,55.20
2018-07-21T09:22:53.116Z,54.30
2018-07-21T09:25:21.910Z,55.30
2018-07-21T09:27:51.712Z,57.20
2018-07-21T09:30:20.383Z,57.70
2018-07-21T09:32:49.045Z,56.60
2018-07-21T09:35:18.873Z,56.50
2018-07-21T09:37:47.591Z,56.60
2018-07-21T09:40:17.491Z,56.80
2018-07-21T09:42:46.180Z,55.80
2018-07-21T09:45:14.851Z,54.80
2018-07-21T09:47:43.645Z,55.20
2018-07-21T09:50:12.363Z,56.50
2018-07-21T09:52:41.196Z,56.80
2018-07-21T09:55:10.103Z,56.10
2018-07-21T09:57:38.842Z,54.50
2018-07-21T10:00:10.758Z,52.70
2018-07-21T10:02:39.558Z,53.40
2018-07-21T10:05:09.173Z,50.50
2018-07-21T10:07:38.982Z,49.70
2018-07-21T10:10:07.838Z,49.00
2018-07-21T10:12:36.699Z,50.60
2018-07-21T10:15:06.338Z,52.20
2018-07-21T10:17:35.012Z,52.90
2018-07-21T10:20:04.089Z,53.20
2018-07-21T10:22:32.882Z,52.30
2018-07-21T10:27:41.214Z,52.20
2018-07-21T10:32:38.673Z,53.00
2018-07-21T10:35:07.848Z,53.70
2018-07-21T10:37:36.741Z,53.50
2018-07-21T10:40:05.584Z,53.20
2018-07-21T10:42:35.052Z,54.10
2018-07-21T10:45:03.735Z,54.10
2018-07-21T10:50:01.891Z,56.10
2018-07-21T10:52:30.586Z,52.30
2018-07-21T10:54:59.413Z,53.20
2018-07-21T10:59:57.867Z,52.10
2018-07-21T11:02:26.554Z,52.80
2018-07-21T11:04:55.367Z,51.70
2018-07-21T11:09:53.011Z,52.60
2018-07-21T11:12:21.713Z,52.00
2018-07-21T11:14:51.587Z,51.00
2018-07-21T11:17:20.598Z,50.10
2018-07-21T11:19:49.289Z,46.40
2018-07-21T11:22:18.026Z,45.90
2018-07-21T11:24:46.743Z,45.70
2018-07-21T11:27:15.540Z,46.70
2018-07-21T11:29:44.278Z,41.00
2018-07-21T11:32:13.132Z,38.40
2018-07-21T11:34:42.027Z,38.60
2018-07-21T11:37:10.667Z,34.60
2018-07-21T11:39:39.399Z,36.10
2018-07-21T11:42:08.132Z,35.30
2018-07-21T11:44:36.941Z,33.50
2018-07-21T11:47:05.567Z,33.70
2018-07-21T11:49:34.776Z,33.50
2018-07-21T11:52:03.584Z,33.50
2018-07-21T11:54:32.274Z,34.20
2018-07-21T11:59:31.927Z,33.70
2018-07-21T12:02:00.788Z,34.00
2018-07-21T12:04:30.509Z,34.30
2018-07-21T12:06:59.201Z,34.90
2018-07-21T12:09:27.872Z,34.70
2018-07-21T12:11:56.660Z,35.30
2018-07-21T12:14:25.456Z,34.60
2018-07-21T12:16:54.076Z,35.50
2018-07-21T12:19:22.774Z,34.80
2018-07-21T12:21:51.513Z,35.10
2018-07-21T12:24:20.286Z,34.70
2018-07-21T12:26:48.928Z,35.50
2018-07-21T12:29:18.231Z,34.40
2018-07-21T12:31:47.016Z,36.50
2018-07-21T12:34:15.801Z,36.00
2018-07-21T12:36:44.731Z,36.10
2018-07-21T12:39:13.353Z,36.30
2018-07-21T12:41:42.137Z,34.10
2018-07-21T12:44:10.804Z,32.90
2018-07-21T12:46:39.549Z,33.70
2018-07-21T12:49:08.259Z,32.50
2018-07-21T12:54:05.597Z,32.40
2018-07-21T12:56:34.332Z,32.10
2018-07-21T12:59:03.312Z,31.70
2018-07-21T13:04:01.350Z,30.70
2018-07-21T13:06:30.086Z,31.50
2018-07-21T13:08:58.775Z,31.60
2018-07-21T13:11:27.613Z,32.00
2018-07-21T13:13:56.283Z,32.50
2018-07-21T13:16:25.079Z,32.40
2018-07-21T13:18:53.759Z,32.10
2018-07-21T13:21:22.971Z,31.60
2018-07-21T13:23:51.818Z,32.10
2018-07-21T13:26:20.669Z,32.80
2018-07-21T13:28:50.044Z,33.00
2018-07-21T13:31:19.423Z,31.70
2018-07-21T13:33:48.152Z,30.90
2018-07-21T13:36:16.876Z,31.60
2018-07-21T13:38:45.850Z,33.00
2018-07-21T13:41:14.676Z,33.80
2018-07-21T13:43:43.556Z,33.30
2018-07-21T13:46:12.292Z,33.90
2018-07-21T13:48:41.049Z,35.30
2018-07-21T13:51:09.879Z,34.30
2018-07-21T13:53:38.606Z,34.70
2018-07-21T13:56:07.360Z,33.90
2018-07-21T13:58:36.252Z,34.00
2018-07-21T14:01:05.129Z,33.70
2018-07-21T14:03:34.475Z,34.00
2018-07-21T14:06:04.291Z,33.40
2018-07-21T14:08:33.976Z,31.50
2018-07-21T14:13:31.687Z,30.00
2018-07-21T14:16:00.585Z,29.50
2018-07-21T14:18:29.285Z,29.90
2018-07-21T14:20:58.805Z,29.30
2018-07-21T14:23:27.619Z,28.60
2018-07-21T14:28:25.277Z,27.60
2018-07-21T14:30:54.150Z,27.10
2018-07-21T14:33:22.890Z,26.30
2018-07-21T14:35:51.733Z,26.60
2018-07-21T14:38:20.481Z,26.70
2018-07-21T14:40:49.193Z,27.00
2018-07-21T14:43:18.795Z,26.80
2018-07-21T14:45:47.851Z,27.10
2018-07-21T14:48:16.563Z,27.20
2018-07-21T14:50:46.996Z,27.30
2018-07-21T14:53:16.319Z,27.60
2018-07-21T14:55:45.849Z,27.90
2018-07-21T14:58:14.605Z,26.80
2018-07-21T15:00:43.904Z,27.90
2018-07-21T15:03:12.780Z,28.60
2018-07-21T15:05:41.554Z,27.50
2018-07-21T15:08:10.358Z,28.20
2018-07-21T15:10:39.083Z,28.60
2018-07-21T15:13:07.824Z,28.40
2018-07-21T15:15:36.564Z,28.70
2018-07-21T15:18:05.367Z,29.20
2018-07-21T15:20:34.079Z,29.10
2018-07-21T15:23:02.997Z,29.20
2018-07-21T15:25:31.676Z,29.70
2018-07-21T15:28:01.163Z,30.00
2018-07-21T15:30:29.899Z,29.90
2018-07-21T15:32:58.639Z,30.00
2018-07-21T15:35:27.378Z,30.60
2018-07-21T15:37:56.284Z,30.30
2018-07-21T15:40:25.684Z,29.60
2018-07-21T15:42:54.426Z,30.00
2018-07-21T15:45:23.258Z,29.70
2018-07-21T15:47:51.899Z,29.70
2018-07-21T15:50:20.679Z,29.90
2018-07-21T15:52:49.428Z,30.00
2018-07-21T15:55:19.119Z,29.80
2018-07-21T16:00:16.272Z,29.70
2018-07-21T16:05:13.601Z,30.40
2018-07-21T16:07:42.338Z,30.40
2018-07-21T16:10:11.087Z,30.80
2018-07-21T16:12:39.838Z,31.20
2018-07-21T16:15:08.525Z,31.30
2018-07-21T16:17:37.246Z,31.20
2018-07-21T16:20:06.183Z,31.30
2018-07-21T16:22:34.983Z,31.50
2018-07-21T16:25:04.982Z,31.00
2018-07-21T16:27:33.831Z,31.60
2018-07-21T16:30:02.571Z,32.20
2018-07-21T16:32:31.342Z,32.10
2018-07-21T16:34:59.996Z,32.90
2018-07-21T16:37:28.676Z,32.50
2018-07-21T16:39:57.341Z,33.00
2018-07-21T16:42:26.086Z,33.00
2018-07-21T16:44:54.719Z,32.90
2018-07-21T16:47:23.395Z,33.10
2018-07-21T16:49:52.103Z,33.40
2018-07-21T16:52:21.316Z,33.40
2018-07-21T16:54:50.097Z,33.40
2018-07-21T16:57:18.824Z,33.70
2018-07-21T16:59:47.676Z,33.70
2018-07-21T17:02:17.186Z,33.80
2018-07-21T17:04:46.926Z,34.10
2018-07-21T17:07:15.698Z,32.60
2018-07-21T17:09:45.138Z,34.10
2018-07-21T17:12:13.771Z,34.00
2018-07-21T17:14:42.464Z,35.30
2018-07-21T17:17:11.840Z,34.80
2018-07-21T17:19:40.603Z,35.70
2018-07-21T17:22:09.291Z,35.00
2018-07-21T17:24:37.923Z,35.20
2018-07-21T17:27:06.587Z,35.80
2018-07-21T17:29:35.291Z,36.30
2018-07-21T17:32:03.903Z,36.10
2018-07-21T17:37:01.119Z,36.50
2018-07-21T17:39:29.758Z,36.60
2018-07-21T17:44:26.948Z,36.50
2018-07-21T17:46:55.600Z,37.40
2018-07-21T17:51:52.779Z,36.90
2018-07-21T17:54:21.464Z,37.30
2018-07-21T17:59:18.623Z,37.90
2018-07-21T18:01:47.375Z,37.90
2018-07-21T18:04:16.003Z,38.00
2018-07-21T18:06:44.742Z,38.00
2018-07-21T18:09:13.390Z,38.50
2018-07-21T18:11:42.065Z,38.20
2018-07-21T18:14:10.750Z,38.60
2018-07-21T18:16:39.573Z,39.30
2018-07-21T18:19:08.316Z,39.30
2018-07-21T18:26:34.158Z,39.80
2018-07-21T18:29:02.930Z,40.20
2018-07-21T18:31:31.707Z,40.80
2018-07-21T18:34:00.437Z,40.80
2018-07-21T18:36:29.112Z,41.10
2018-07-21T18:38:57.896Z,41.10
2018-07-21T18:41:26.714Z,41.30
2018-07-21T18:43:55.412Z,41.40
2018-07-21T18:46:24.138Z,41.30
2018-07-21T18:48:52.775Z,41.00
2018-07-21T18:51:21.928Z,41.70
2018-07-21T18:53:50.550Z,42.30
2018-07-21T18:56:19.196Z,41.80
2018-07-21T18:58:47.825Z,42.40
2018-07-21T19:01:16.565Z,43.20
2018-07-21T19:03:45.190Z,43.80
2018-07-21T19:06:13.863Z,44.40
2018-07-21T19:08:48.050Z,45.60
2018-07-21T19:11:16.723Z,46.70
2018-07-21T19:13:45.438Z,49.50
2018-07-21T19:19:17.561Z,51.00
2018-07-21T19:21:47.024Z,51.80
2018-07-21T19:26:49.801Z,53.00
2018-07-21T19:29:18.608Z,53.50
2018-07-21T19:31:53.036Z,54.40
2018-07-21T19:34:21.778Z,53.80
2018-07-21T19:36:50.395Z,52.50
2018-07-21T19:41:54.506Z,54.20
2018-07-21T19:44:24.663Z,55.80
2018-07-21T19:46:53.441Z,56.60
2018-07-21T19:49:22.241Z,56.80
2018-07-21T19:51:51.663Z,57.30
2018-07-21T19:54:21.562Z,58.20
2018-07-21T19:56:50.342Z,59.00
2018-07-21T19:59:19.739Z,58.60
2018-07-21T20:04:16.971Z,58.40
2018-07-21T20:06:45.734Z,59.30
2018-07-21T20:09:14.451Z,60.00
2018-07-21T20:11:43.119Z,59.50
2018-07-21T20:14:12.623Z,59.50
2018-07-21T20:16:41.230Z,59.70
2018-07-21T20:19:09.915Z,59.90
2018-07-21T20:21:38.575Z,59.50
2018-07-21T20:24:07.383Z,60.00
2018-07-21T20:26:36.045Z,60.90
2018-07-21T20:29:04.752Z,61.20
2018-07-21T20:31:33.667Z,61.60
2018-07-21T20:36:30.910Z,62.60
2018-07-21T20:38:59.621Z,63.10
2018-07-21T20:43:56.996Z,64.60
2018-07-21T20:48:54.927Z,66.90
2018-07-21T20:51:23.754Z,67.00
2018-07-21T20:53:52.566Z,65.10
2018-07-21T20:56:21.469Z,65.30
2018-07-21T20:58:50.263Z,64.30
2018-07-21T21:01:18.941Z,65.70
2018-07-21T21:03:47.648Z,65.20
2018-07-21T21:06:16.811Z,65.70
2018-07-21T21:08:46.353Z,65.30
2018-07-21T21:11:15.092Z,66.00
2018-07-21T21:13:43.779Z,66.90
2018-07-21T21:18:41.766Z,65.90
2018-07-21T21:21:10.546Z,66.90
2018-07-21T21:26:07.856Z,67.30
2018-07-21T21:28:36.653Z,67.50
2018-07-21T21:31:05.448Z,67.80
2018-07-21T21:33:34.644Z,68.30
2018-07-21T21:36:03.431Z,68.30
2018-07-21T21:38:32.624Z,68.40
2018-07-21T21:41:01.317Z,68.60
2018-07-21T21:43:30.024Z,70.00
2018-07-21T21:45:58.709Z,70.40
2018-07-21T21:48:28.066Z,70.20
2018-07-21T21:50:57.245Z,70.30
2018-07-21T21:58:23.053Z,71.10
2018-07-21T22:01:03.956Z,71.20
2018-07-21T22:03:32.656Z,71.20
2018-07-21T22:06:01.458Z,71.10
2018-07-21T22:08:31.059Z,71.10
2018-07-21T22:10:59.772Z,71.20
2018-07-21T22:13:28.993Z,71.20
2018-07-21T22:15:58.221Z,71.70
2018-07-21T22:20:55.944Z,72.40
2018-07-21T22:23:24.611Z,72.40
2018-07-21T22:25:53.261Z,72.70
2018-07-21T22:30:50.365Z,73.70
2018-07-21T22:33:19.477Z,74.00
2018-07-21T22:35:48.199Z,74.10
2018-07-21T22:38:16.961Z,74.10
2018-07-21T22:40:45.639Z,74.10
2018-07-21T22:43:14.425Z,74.70
2018-07-21T22:45:43.103Z,74.80
2018-07-21T22:48:12.272Z,75.20
2018-07-21T22:50:41.926Z,75.70
2018-07-21T22:53:10.582Z,76.30
2018-07-21T22:55:39.468Z,76.60
2018-07-21T22:58:08.193Z,76.80
2018-07-21T23:00:37.303Z,77.20
2018-07-21T23:03:06.718Z,77.20
2018-07-21T23:08:03.990Z,77.80
2018-07-21T23:13:02.452Z,78.20
2018-07-21T23:15:31.186Z,78.50
2018-07-21T23:17:59.823Z,79.40
2018-07-21T23:20:28.454Z,79.60
2018-07-21T23:22:57.155Z,79.60
2018-07-21T23:25:25.800Z,79.70
2018-07-21T23:27:54.573Z,79.70
2018-07-21T23:30:23.233Z,79.00
2018-07-21T23:32:51.933Z,78.70
2018-07-21T23:35:20.896Z,78.30
2018-07-21T23:37:49.597Z,78.30
2018-07-21T23:40:18.318Z,78.10
2018-07-21T23:42:48.808Z,78.30
2018-07-21T23:45:17.498Z,79.20
2018-07-21T23:47:46.188Z,79.50
2018-07-21T23:50:15.211Z,79.60
2018-07-21T23:52:43.998Z,79.60
2018-07-21T23:55:12.679Z,80.10
2018-07-21T23:57:41.337Z,80.20
